Terminal Aerodrome Forecast
Issued by NWS Melbourne, FL

Home | Current Version | Previous Version | Text Only | Print | Product List | Glossary On
Versions: 1 2 3 4 5 6 7 8 9 10 11 12 13 14 15 16 17 18 19 20
000
FTUS42 KMLB 250500
TAFDAB
TAF
KDAB 250539Z 2506/2606 25006KT P6SM -RA VCSH FEW012 BKN050 OVC060
     FM250800 28008KT P6SM BKN060
     FM251200 31008KT P6SM SCT035 BKN110
     FM260100 01004KT P6SM SCT010 BKN025=

USA.gov is the U.S. government's official web portal to all federal, state and local government web resources and services.